Time;durP1;ratioP1;P1;durP2;ratioP2;P2;SDS_P1;SDS_P2;PMS_P1;PMS_P2;Temp;Humidity;BMP_temperature;BMP_pressure;BME280_temperature;BME280_humidity;BME280_pressure;Samples;Min_cycle;Max_cycle;Signal;HPM_P1;HPM_P2
2024/02/10 00:01:09;;;;;;;8.03;7.33;;;;;;;9.02;100.00;150940.53;10599477;28;20036;-78
2024/02/10 00:06:15;;;;;;;9.60;8.00;;;;;;;8.93;100.00;150918.59;10598448;28;20062;-78
2024/02/10 00:11:17;;;;;;;8.18;7.38;;;;;;;8.93;100.00;150917.31;10598659;28;20036;-79
2024/02/10 00:16:19;;;;;;;8.68;7.97;;;;;;;8.82;100.00;150890.25;10596759;28;20047;-78
2024/02/10 00:21:20;;;;;;;8.13;7.45;;;;;;;8.86;100.00;150900.56;10574409;28;20078;-79
2024/02/10 00:26:22;;;;;;;9.07;7.68;;;;;;;8.90;100.00;150909.56;10593256;28;20040;-79
2024/02/10 00:31:25;;;;;;;7.82;7.03;;;;;;;8.88;100.00;150905.72;10596835;28;20039;-78
2024/02/10 00:36:27;;;;;;;8.05;7.25;;;;;;;8.93;100.00;150918.59;10573023;28;20130;-78
2024/02/10 00:41:28;;;;;;;8.15;7.35;;;;;;;8.94;100.00;150919.88;10596385;28;20035;-78
2024/02/10 00:46:31;;;;;;;7.00;6.30;;;;;;;8.75;100.00;150872.19;10590670;28;20135;-77
2024/02/10 00:51:33;;;;;;;9.18;7.38;;;;;;;8.67;100.00;150852.84;10589090;28;20093;-77
2024/02/10 00:56:36;;;;;;;8.00;7.20;;;;;;;8.78;100.00;150879.94;10592593;28;20043;-78
2024/02/10 01:01:39;;;;;;;8.68;7.88;;;;;;;8.98;100.00;150931.47;10596344;28;20079;-79
2024/02/10 01:06:44;;;;;;;6.72;6.00;;;;;;;8.71;100.00;150863.16;10596327;28;20044;-78
2024/02/10 01:11:46;;;;;;;7.40;6.72;;;;;;;9.01;100.00;150939.25;10594678;28;20036;-78
2024/02/10 01:16:48;;;;;;;6.75;6.18;;;;;;;8.72;100.00;150864.44;10563344;28;20047;-78
2024/02/10 01:21:50;;;;;;;6.65;6.15;;;;;;;8.45;100.00;150797.38;10590275;28;20040;-78
2024/02/10 01:26:53;;;;;;;8.02;7.32;;;;;;;8.61;100.00;150836.09;10590380;28;20503;-79
2024/02/10 01:31:55;;;;;;;7.03;6.43;;;;;;;8.69;100.00;150856.72;10589770;28;20388;-78
2024/02/10 01:36:58;;;;;;;7.13;6.53;;;;;;;8.80;100.00;150885.06;10596203;28;20082;-78
2024/02/10 01:42:00;;;;;;;7.25;6.05;;;;;;;8.83;100.00;150894.09;10592364;28;20036;-78
2024/02/10 01:47:03;;;;;;;7.20;5.65;;;;;;;8.71;100.00;150863.16;10595003;28;20051;-78
2024/02/10 01:52:10;;;;;;;7.88;6.05;;;;;;;8.67;100.00;150851.53;10604033;28;20043;-79
2024/02/10 01:57:12;;;;;;;7.30;6.65;;;;;;;8.56;100.00;150825.78;10603289;28;20073;-78
2024/02/10 02:02:15;;;;;;;7.03;6.05;;;;;;;8.54;100.00;150820.66;10600428;28;20035;-79
2024/02/10 02:07:16;;;;;;;7.35;6.65;;;;;;;8.63;100.00;150842.50;10598524;28;20047;-79
2024/02/10 02:12:18;;;;;;;6.93;6.30;;;;;;;8.54;100.00;150819.31;10585539;28;20361;-79
2024/02/10 02:17:21;;;;;;;7.32;6.63;;;;;;;8.39;100.00;150781.94;10584868;28;20082;-78
2024/02/10 02:22:25;;;;;;;7.97;6.88;;;;;;;8.32;100.00;150765.16;10602911;28;20412;-78
2024/02/10 02:27:27;;;;;;;7.78;6.25;;;;;;;8.66;100.00;150848.97;10602661;28;20050;-79
2024/02/10 02:32:34;;;;;;;5.95;5.45;;;;;;;8.45;100.00;150796.09;10600546;28;20091;-78
2024/02/10 02:37:40;;;;;;;6.93;6.30;;;;;;;8.30;100.00;150759.97;10602729;28;20036;-78
2024/02/10 02:42:42;;;;;;;6.30;5.70;;;;;;;8.44;100.00;150794.81;10601998;28;20075;-78
2024/02/10 02:47:44;;;;;;;6.43;5.80;;;;;;;8.26;100.00;150748.38;10602257;28;20047;-77
2024/02/10 02:52:46;;;;;;;5.05;4.65;;;;;;;8.21;100.00;150736.78;10600825;28;20040;-78
2024/02/10 02:57:48;;;;;;;6.13;5.53;;;;;;;8.23;100.00;150741.91;10580870;28;20134;-78
2024/02/10 03:02:51;;;;;;;6.07;5.40;;;;;;;8.21;100.00;150736.78;10596227;28;20043;-78
2024/02/10 03:07:52;;;;;;;5.53;5.03;;;;;;;8.21;100.00;150735.50;10597502;28;20478;-78
2024/02/10 03:12:55;;;;;;;5.85;5.25;;;;;;;8.12;100.00;150713.59;10599765;28;20487;-78
2024/02/10 03:17:57;;;;;;;6.95;6.10;;;;;;;8.14;100.00;150717.44;10599873;28;20130;-79
2024/02/10 03:23:01;;;;;;;6.38;5.78;;;;;;;8.08;100.00;150703.28;10597793;28;20058;-78
2024/02/10 03:28:04;;;;;;;6.85;6.18;;;;;;;8.04;100.00;150694.25;10599530;28;20109;-78
2024/02/10 03:33:06;;;;;;;7.07;6.45;;;;;;;8.09;100.00;150707.13;10592997;28;20404;-78
2024/02/10 03:38:08;;;;;;;6.82;6.22;;;;;;;8.17;100.00;150725.19;10588552;28;20438;-77
2024/02/10 03:43:11;;;;;;;7.13;6.28;;;;;;;8.00;100.00;150683.94;10569364;28;20050;-77
2024/02/10 03:48:14;;;;;;;7.10;6.45;;;;;;;8.00;100.00;150682.66;10586618;28;20456;-77
2024/02/10 03:53:17;;;;;;;7.82;5.95;;;;;;;7.89;100.00;150655.59;10570704;28;20047;-78
2024/02/10 03:58:19;;;;;;;7.28;6.57;;;;;;;7.90;100.00;150656.91;10591617;28;20149;-77
2024/02/10 04:03:21;;;;;;;7.03;6.32;;;;;;;7.85;100.00;150645.31;10588822;28;20039;-77
2024/02/10 04:08:24;;;;;;;7.72;6.95;;;;;;;7.71;100.00;150610.53;10591146;28;20047;-77
2024/02/10 04:13:28;;;;;;;6.25;5.65;;;;;;;7.66;100.00;150596.31;10592713;28;20111;-77
2024/02/10 04:18:30;;;;;;;6.47;5.88;;;;;;;7.66;100.00;150596.31;10577798;28;20103;-78
2024/02/10 04:23:33;;;;;;;6.93;6.25;;;;;;;7.57;100.00;150575.75;10596043;28;20036;-78
2024/02/10 04:28:35;;;;;;;6.75;6.07;;;;;;;7.58;100.00;150577.03;10596805;28;20044;-78
2024/02/10 04:33:37;;;;;;;6.10;5.57;;;;;;;7.44;100.00;150540.97;10597770;28;20118;-77
2024/02/10 04:38:40;;;;;;;5.07;4.57;;;;;;;7.22;100.00;150485.59;10578015;28;20047;-78
2024/02/10 04:43:41;;;;;;;6.07;5.47;;;;;;;7.26;100.00;150497.19;10578201;28;20070;-79
2024/02/10 04:48:43;;;;;;;5.80;5.20;;;;;;;7.21;100.00;150482.97;10576580;28;20074;-78
2024/02/10 04:53:45;;;;;;;5.00;4.60;;;;;;;7.08;100.00;150450.78;10596091;28;20095;-78
2024/02/10 04:58:50;;;;;;;6.00;5.25;;;;;;;7.01;100.00;150432.78;10559933;28;20052;-79
2024/02/10 05:03:52;;;;;;;6.45;5.85;;;;;;;7.03;100.00;150437.91;10592807;28;20039;-78
2024/02/10 05:08:54;;;;;;;5.93;5.32;;;;;;;6.94;100.00;150416.00;10593962;28;20402;-78
2024/02/10 05:13:56;;;;;;;7.07;6.30;;;;;;;7.08;100.00;150452.09;10594808;28;20410;-78
2024/02/10 05:19:00;;;;;;;7.07;6.35;;;;;;;7.08;100.00;150450.78;10595063;28;20101;-79
2024/02/10 05:24:10;;;;;;;10.80;7.20;;;;;;;7.12;100.00;150461.06;10585256;28;20097;-79
2024/02/10 05:29:14;;;;;;;6.65;5.93;;;;;;;7.11;100.00;150458.50;10580064;28;20047;-79
2024/02/10 05:34:17;;;;;;;6.90;5.75;;;;;;;7.24;100.00;150490.72;10601205;28;20039;-79
2024/02/10 05:39:19;;;;;;;7.53;6.82;;;;;;;7.16;100.00;150471.38;10600286;28;20039;-79
2024/02/10 05:44:22;;;;;;;6.43;5.82;;;;;;;7.32;100.00;150512.59;10580406;28;20505;-77
2024/02/10 05:49:25;;;;;;;6.38;5.78;;;;;;;7.32;100.00;150512.59;10598913;28;20044;-80
2024/02/10 05:54:29;;;;;;;6.53;5.68;;;;;;;7.43;100.00;150539.63;10581171;28;20449;-78
2024/02/10 05:59:30;;;;;;;7.15;6.43;;;;;;;7.49;100.00;150553.84;10598134;28;20052;-78
2024/02/10 06:04:33;;;;;;;6.32;5.72;;;;;;;7.58;100.00;150578.31;10602189;28;20044;-78
2024/02/10 06:09:36;;;;;;;6.60;5.55;;;;;;;7.61;100.00;150583.44;10597766;28;20040;-79
2024/02/10 06:14:39;;;;;;;7.55;6.85;;;;;;;7.80;100.00;150632.44;10594856;28;20069;-78
2024/02/10 06:19:41;;;;;;;6.47;5.78;;;;;;;7.69;100.00;150605.34;10596151;28;20039;-78
2024/02/10 06:24:44;;;;;;;5.68;5.18;;;;;;;7.52;100.00;150562.81;10599614;28;20055;-78
2024/02/10 06:29:46;;;;;;;5.68;5.10;;;;;;;7.65;100.00;150595.03;10600607;28;20043;-81
2024/02/10 06:34:51;;;;;;;6.07;5.47;;;;;;;8.01;100.00;150686.53;10558081;28;20047;-79
2024/02/10 06:39:53;;;;;;;7.00;5.45;;;;;;;8.23;100.00;150741.91;10599605;28;20052;-79
2024/02/10 06:44:59;;;;;;;6.25;5.65;;;;;;;8.14;100.00;150718.72;10601574;28;20035;-78
2024/02/10 06:50:01;;;;;;;7.05;6.35;;;;;;;8.15;100.00;150721.34;10584290;28;20043;-79
2024/02/10 06:55:04;;;;;;;5.45;4.95;;;;;;;7.92;100.00;150662.03;10578148;28;20048;-79
2024/02/10 07:00:07;;;;;;;6.25;5.57;;;;;;;7.78;100.00;150628.53;10600228;28;20495;-78
2024/02/10 07:05:16;;;;;;;7.85;6.43;;;;;;;7.81;100.00;150636.28;10574789;28;20130;-78
2024/02/10 07:10:23;;;;;;;6.32;5.45;;;;;;;7.95;100.00;150669.78;10600219;28;20097;-78
2024/02/10 07:15:25;;;;;;;;;;;;;;;7.93;100.00;150665.91;10596823;28;20047;-78
2024/02/10 07:20:31;;;;;;;7.05;6.35;;;;;;;7.92;100.00;150663.31;10593864;28;19920;-78
2024/02/10 07:25:38;;;;;;;7.40;6.70;;;;;;;8.42;100.00;150788.41;10600268;28;20377;-79
2024/02/10 07:30:46;;;;;;;8.73;7.85;;;;;;;8.55;100.00;150823.22;10578574;28;20043;-77
2024/02/10 07:35:49;;;;;;;10.18;7.57;;;;;;;8.65;100.00;150846.41;10592855;28;20039;-77
2024/02/10 07:40:51;;;;;;;11.35;7.30;;;;;;;8.56;100.00;150824.50;10590159;28;20518;-77
2024/02/10 07:45:55;;;;;;;6.97;6.28;;;;;;;8.56;100.00;150825.78;10593072;28;20514;-78
2024/02/10 07:50:56;;;;;;;8.50;6.90;;;;;;;8.26;100.00;150749.66;10589037;28;20062;-78
2024/02/10 07:55:58;;;;;;;7.72;7.00;;;;;;;8.42;100.00;150788.41;10593143;28;20048;-79
2024/02/10 08:01:01;;;;;;;7.20;6.50;;;;;;;8.29;100.00;150757.41;10593662;28;20097;-78
2024/02/10 08:06:06;;;;;;;9.18;8.27;;;;;;;8.59;100.00;150832.25;10579529;28;20449;-78
2024/02/10 08:11:08;;;;;;;8.15;6.75;;;;;;;8.80;100.00;150885.06;10596055;28;20038;-79
2024/02/10 08:16:10;;;;;;;8.55;7.75;;;;;;;8.66;100.00;150848.97;10583461;28;20101;-79
2024/02/10 08:21:12;;;;;;;7.97;7.18;;;;;;;8.93;100.00;150917.31;10599024;28;20043;-78
2024/02/10 08:26:20;;;;;;;8.68;7.45;;;;;;;9.04;100.00;150947.00;10604448;28;20035;-80
2024/02/10 08:31:23;;;;;;;9.90;7.82;;;;;;;9.21;100.00;150989.56;10583794;28;20047;-77
2024/02/10 08:36:28;;;;;;;10.32;6.90;;;;;;;8.99;100.00;150934.09;10576838;28;20036;-78
2024/02/10 08:41:30;;;;;;;9.07;6.50;;;;;;;8.83;100.00;150892.81;10598440;28;20154;-79
2024/02/10 08:46:32;;;;;;;7.30;6.35;;;;;;;8.72;100.00;150864.44;10597447;28;20066;-79
2024/02/10 08:51:34;;;;;;;6.60;6.00;;;;;;;9.12;100.00;150965.03;10594448;28;20066;-78
2024/02/10 08:56:41;;;;;;;7.78;6.93;;;;;;;8.93;100.00;150917.31;10589658;28;20126;-79
2024/02/10 09:01:43;;;;;;;;;;;;;;;8.99;100.00;150934.09;10576996;28;20027;-78
2024/02/10 09:06:45;;;;;;;8.50;7.60;;;;;;;9.27;100.00;151005.03;10593079;28;20026;-78
2024/02/10 09:11:47;;;;;;;10.73;9.68;;;;;;;9.74;100.00;151122.41;10590566;28;20120;-77
2024/02/10 09:16:49;;;;;;;8.65;7.95;;;;;;;9.76;100.00;151128.88;10559607;28;20071;-78
2024/02/10 09:21:58;;;;;;;7.97;7.18;;;;;;;9.85;100.00;151150.81;10595435;28;20060;-78
2024/02/10 09:27:00;;;;;;;6.15;4.97;;;;;;;10.03;100.00;151195.97;10597782;28;20511;-78
2024/02/10 09:32:02;;;;;;;8.82;6.45;;;;;;;10.36;100.00;151279.94;10596180;28;20452;-79
2024/02/10 09:37:04;;;;;;;5.28;4.75;;;;;;;10.01;100.00;151190.84;10595504;28;20055;-78
2024/02/10 09:42:09;;;;;;;5.22;4.70;;;;;;;9.90;100.00;151163.72;10591713;28;20039;-79
2024/02/10 09:47:14;;;;;;;7.03;6.25;;;;;;;10.04;100.00;151199.84;10597970;28;20039;-79
2024/02/10 09:52:16;;;;;;;5.55;4.95;;;;;;;10.31;100.00;151267.00;10571988;28;20077;-78
2024/02/10 09:57:22;;;;;;;5.07;4.55;;;;;;;10.21;100.00;151241.16;10593542;28;20407;-79
2024/02/10 10:02:27;;;;;;;6.38;5.10;;;;;;;10.59;100.00;151339.31;10589560;28;20067;-81
2024/02/10 10:07:31;;;;;;;5.07;4.20;;;;;;;10.48;100.00;151310.91;10593766;28;20086;-79
2024/02/10 10:12:34;;;;;;;6.05;5.47;;;;;;;10.66;100.00;151356.09;10601093;28;20055;-79
2024/02/10 10:17:37;;;;;;;6.30;5.70;;;;;;;10.59;100.00;151339.31;10601712;28;20108;-79
2024/02/10 10:22:39;;;;;;;6.43;5.82;;;;;;;10.75;100.00;151378.03;10583694;28;20047;-78
2024/02/10 10:27:40;;;;;;;5.20;4.70;;;;;;;10.89;100.00;151414.25;10600542;28;20065;-78
2024/02/10 10:32:51;;;;;;;6.38;5.60;;;;;;;11.02;100.00;151447.81;10583377;28;20054;-79
2024/02/10 10:37:55;;;;;;;5.93;5.32;;;;;;;10.92;100.00;151420.66;10584252;28;20051;-80
2024/02/10 10:43:01;;;;;;;6.50;5.90;;;;;;;10.89;100.00;151414.25;10601377;28;20065;-78
2024/02/10 10:48:04;;;;;;;8.27;7.47;;;;;;;11.04;100.00;151452.97;10581930;28;20104;-78
2024/02/10 10:53:11;;;;;;;5.38;4.88;;;;;;;11.57;100.00;151586.03;10583863;28;20047;-79
2024/02/10 10:58:18;;;;;;;7.15;6.55;;;;;;;12.16;100.00;151736.00;10586210;28;20035;-79
2024/02/10 11:03:22;;;;;;;5.72;5.22;;;;;;;12.78;96.15;151892.44;10584085;28;20507;-81
2024/02/10 11:08:28;;;;;;;5.75;5.25;;;;;;;12.23;97.58;151752.81;10606027;28;20058;-79
2024/02/10 11:13:31;;;;;;;7.37;6.57;;;;;;;12.30;99.03;151772.16;10588595;28;20078;-79
2024/02/10 11:18:33;;;;;;;6.03;5.53;;;;;;;12.24;96.52;151755.38;10604801;28;20048;-80
2024/02/10 11:23:37;;;;;;;6.45;5.47;;;;;;;12.58;95.39;151843.31;10604131;28;20092;-80
2024/02/10 11:28:39;;;;;;;6.20;5.60;;;;;;;12.51;94.29;151823.91;10604864;28;20048;-79
2024/02/10 11:33:41;;;;;;;6.93;5.88;;;;;;;12.37;94.16;151789.00;10586396;28;20063;-81
2024/02/10 11:38:43;;;;;;;7.75;7.05;;;;;;;12.52;91.94;151826.47;10587216;28;20089;-80
2024/02/10 11:43:48;;;;;;;6.93;6.32;;;;;;;12.53;91.92;151829.09;10606074;28;20039;-79
2024/02/10 11:48:53;;;;;;;7.90;7.13;;;;;;;12.56;91.43;151836.84;10607140;28;20047;-82
2024/02/10 11:53:57;;;;;;;7.03;6.43;;;;;;;13.31;86.29;152028.31;10571324;28;20082;-80
2024/02/10 11:59:03;;;;;;;7.28;6.57;;;;;;;13.37;89.25;152042.59;10586828;28;20522;-80
2024/02/10 12:04:06;;;;;;;7.22;6.53;;;;;;;13.29;88.70;152021.88;10585709;28;20035;-81
2024/02/10 12:09:10;;;;;;;6.90;6.30;;;;;;;12.94;90.03;151933.84;10604083;28;20043;-81
2024/02/10 12:14:15;;;;;;;6.07;5.57;;;;;;;12.81;86.33;151901.50;10604797;28;20036;-81
2024/02/10 12:19:19;;;;;;;6.80;6.20;;;;;;;12.46;89.59;151812.28;10587330;28;20055;-81
2024/02/10 12:24:21;;;;;;;7.10;6.28;;;;;;;12.76;84.70;151887.28;10605073;28;20392;-81
2024/02/10 12:29:25;;;;;;;6.72;6.05;;;;;;;12.92;87.14;151927.34;10570414;28;20048;-81
2024/02/10 12:34:27;;;;;;;6.63;5.95;;;;;;;12.93;85.77;151931.28;10604928;28;20403;-81
2024/02/10 12:39:30;;;;;;;6.68;6.07;;;;;;;12.72;88.84;151878.22;10605371;28;20412;-80
2024/02/10 12:44:31;;;;;;;6.85;6.28;;;;;;;12.84;88.92;151908.00;10606745;28;20040;-82
2024/02/10 12:49:34;;;;;;;6.75;5.88;;;;;;;12.54;90.37;151832.97;10604766;28;20067;-82
2024/02/10 12:54:36;;;;;;;7.75;6.95;;;;;;;12.42;92.03;151800.63;10604881;28;20048;-81
2024/02/10 12:59:38;;;;;;;6.95;6.30;;;;;;;12.36;89.89;151787.72;10605158;28;20043;-82
2024/02/10 13:04:40;;;;;;;7.00;6.38;;;;;;;12.15;89.32;151732.13;10586589;28;20040;-80
2024/02/10 13:09:43;;;;;;;6.00;5.40;;;;;;;12.14;88.75;151729.56;10585351;28;20043;-80
2024/02/10 13:14:45;;;;;;;6.45;5.65;;;;;;;12.22;89.17;151751.53;10584167;28;20503;-81
2024/02/10 13:19:47;;;;;;;6.47;5.88;;;;;;;12.22;91.20;151750.19;10616772;28;20093;-81
2024/02/10 13:24:49;;;;;;;6.38;5.78;;;;;;;12.20;91.73;151745.03;10607828;28;20036;-81
2024/02/10 13:29:51;;;;;;;7.10;6.50;;;;;;;12.10;93.17;151720.50;10623662;28;20043;-80
2024/02/10 13:34:55;;;;;;;6.72;5.93;;;;;;;11.99;94.84;151693.31;10607377;28;20050;-82
2024/02/10 14:01:46;;;;;;;8.70;7.90;;;;;;;11.71;91.47;151622.22;10653601;27;20039;-81
2024/02/10 14:06:49;;;;;;;7.32;6.72;;;;;;;11.51;92.79;151571.84;10653524;27;20099;-81
2024/02/10 14:11:53;;;;;;;7.95;7.15;;;;;;;11.56;94.02;151584.75;10633887;27;20102;-80
2024/02/10 14:17:09;;;;;;;7.57;6.95;;;;;;;11.53;92.60;151575.69;10649095;27;20069;-79
2024/02/10 14:22:12;;;;;;;8.85;8.05;;;;;;;11.43;92.88;151551.16;10633885;27;20047;-80
2024/02/10 14:27:14;;;;;;;8.05;7.30;;;;;;;11.31;94.12;151521.41;10632917;27;20039;-80
2024/02/10 14:32:23;;;;;;;7.43;6.82;;;;;;;11.14;95.56;151476.22;10631688;27;20107;-79
2024/02/10 14:37:41;;;;;;;7.50;6.90;;;;;;;11.19;95.13;151489.13;10649137;27;20043;-78
2024/02/10 14:42:44;;;;;;;8.87;8.07;;;;;;;11.17;95.86;151485.25;10649704;27;20475;-80
2024/02/10 14:47:46;;;;;;;8.45;7.60;;;;;;;10.95;98.39;151428.44;10648739;27;20074;-81
2024/02/10 14:52:48;;;;;;;9.15;8.35;;;;;;;11.05;98.10;151454.25;10647837;27;20043;-80
2024/02/10 14:57:55;;;;;;;9.13;8.23;;;;;;;11.22;96.31;151496.88;10648897;27;20043;-79
2024/02/10 15:03:00;;;;;;;8.73;7.93;;;;;;;10.99;98.07;151440.06;10648345;27;20413;-80
2024/02/10 15:08:02;;;;;;;8.57;7.70;;;;;;;10.96;97.79;151432.28;10646700;27;20039;-80
2024/02/10 15:13:04;;;;;;;9.27;8.48;;;;;;;10.89;99.00;151414.25;10645589;27;20039;-79
2024/02/10 15:18:06;;;;;;;8.43;7.72;;;;;;;11.06;97.72;151456.81;10625938;27;20047;-80
2024/02/10 15:23:12;;;;;;;8.88;7.30;;;;;;;10.97;100.00;151434.88;10644887;27;20081;-81
2024/02/10 15:28:18;;;;;;;9.80;7.37;;;;;;;10.95;100.00;151428.44;10645395;27;20043;-81
2024/02/10 15:33:25;;;;;;;7.70;7.03;;;;;;;10.67;100.00;151358.72;10645769;27;20655;-80
2024/02/10 15:38:27;;;;;;;7.45;6.75;;;;;;;10.72;100.00;151370.34;10645695;27;20041;-81
2024/02/10 15:43:31;;;;;;;8.10;7.30;;;;;;;10.57;100.00;151332.84;10647312;27;20035;-80
2024/02/10 15:48:36;;;;;;;7.97;7.32;;;;;;;10.56;100.00;151331.56;10626672;27;20540;-80
2024/02/10 15:53:41;;;;;;;8.05;7.35;;;;;;;10.36;100.00;151279.94;10651428;27;20035;-80
2024/02/10 15:58:45;;;;;;;8.07;7.38;;;;;;;10.40;100.00;151290.22;10646969;27;20100;-80
2024/02/10 16:03:50;;;;;;;8.48;7.68;;;;;;;10.15;100.00;151225.69;10625238;27;20040;-80
2024/02/10 16:08:54;;;;;;;9.32;8.52;;;;;;;10.13;100.00;151220.50;10605783;27;20049;-80
2024/02/10 16:13:56;;;;;;;9.10;8.23;;;;;;;10.06;100.00;151203.75;10623813;27;20051;-80
2024/02/10 16:18:59;;;;;;;9.00;8.27;;;;;;;10.19;100.00;151236.00;10624526;27;20092;-79
2024/02/10 16:24:05;;;;;;;8.93;8.20;;;;;;;10.03;100.00;151197.25;10609421;27;20043;-74
2024/02/10 16:29:11;;;;;;;8.77;7.95;;;;;;;10.06;100.00;151205.03;10626762;27;20043;-75
2024/02/10 16:34:14;;;;;;;9.77;8.82;;;;;;;10.09;100.00;151212.78;10627153;27;20479;-75
2024/02/10 16:39:16;;;;;;;9.68;8.77;;;;;;;9.82;100.00;151143.06;10609459;27;20134;-75
2024/02/10 16:44:18;;;;;;;10.57;9.35;;;;;;;9.99;100.00;151186.94;10628563;27;20031;-74
2024/02/10 16:49:22;;;;;;;10.35;9.45;;;;;;;9.64;100.00;151096.59;10594385;27;20040;-76
2024/02/10 16:54:25;;;;;;;9.48;8.77;;;;;;;9.60;100.00;151088.84;10582769;28;20091;-78
2024/02/10 16:59:28;;;;;;;10.52;9.52;;;;;;;9.42;100.00;151042.41;10561867;28;20048;-75
2024/02/10 17:04:30;;;;;;;9.57;8.77;;;;;;;9.35;100.00;151025.66;10556556;28;20047;-75
2024/02/10 17:09:34;;;;;;;10.55;9.52;;;;;;;9.51;100.00;151065.63;10584283;28;20056;-76
2024/02/10 17:14:36;;;;;;;10.55;9.68;;;;;;;9.44;100.00;151047.59;10583244;28;20047;-76
2024/02/10 17:19:38;;;;;;;12.45;9.93;;;;;;;9.27;100.00;151005.03;10590235;28;20047;-77
2024/02/10 17:24:41;;;;;;;9.90;8.93;;;;;;;9.05;100.00;150948.28;10591735;28;20101;-77
2024/02/10 17:29:43;;;;;;;10.52;9.63;;;;;;;9.44;100.00;151047.59;10592709;28;20051;-74
2024/02/10 17:34:45;;;;;;;10.38;9.38;;;;;;;9.16;100.00;150975.34;10594509;28;20043;-74
2024/02/10 17:39:47;;;;;;;10.35;9.45;;;;;;;9.04;100.00;150945.72;10597496;28;20496;-74
2024/02/10 17:44:56;;;;;;;11.27;10.27;;;;;;;8.97;100.00;150927.63;10578916;28;20035;-74
2024/02/10 17:49:58;;;;;;;;;;;;;;;8.88;100.00;150905.72;10594448;28;20046;-73
2024/02/10 17:55:01;;;;;;;11.15;9.30;;;;;;;8.73;100.00;150868.34;10591771;28;20298;-74
2024/02/10 18:00:05;;;;;;;10.45;9.63;;;;;;;8.82;100.00;150890.25;10593421;28;20040;-74
2024/02/10 18:05:08;;;;;;;9.50;8.65;;;;;;;8.54;100.00;150820.66;10571488;28;20040;-74
2024/02/10 18:10:10;;;;;;;11.48;10.45;;;;;;;8.43;100.00;150790.97;10551537;28;20050;-74
2024/02/10 18:15:14;;;;;;;9.75;8.85;;;;;;;8.44;100.00;150793.53;10550567;28;20033;-74
2024/02/10 18:20:17;;;;;;;12.80;11.60;;;;;;;8.28;100.00;150753.56;10550590;28;20047;-74
2024/02/10 18:25:20;;;;;;;11.55;10.50;;;;;;;8.33;100.00;150767.72;10552086;28;20485;-74
2024/02/10 18:30:22;;;;;;;12.68;11.63;;;;;;;8.21;100.00;150736.78;10533674;28;20089;-74
2024/02/10 18:35:24;;;;;;;11.15;10.15;;;;;;;8.17;100.00;150726.47;10532960;28;20036;-74
2024/02/10 18:40:28;;;;;;;12.52;11.32;;;;;;;8.08;100.00;150703.28;10534275;28;20047;-73
2024/02/10 18:45:33;;;;;;;12.30;11.20;;;;;;;8.22;100.00;150739.34;10533679;28;20040;-74
2024/02/10 18:50:36;;;;;;;12.27;11.17;;;;;;;8.14;100.00;150718.72;10551522;28;20062;-75
2024/02/10 18:55:42;;;;;;;12.48;11.27;;;;;;;8.12;100.00;150712.31;10549643;28;20043;-74
2024/02/10 19:00:49;;;;;;;11.30;10.35;;;;;;;8.07;100.00;150702.00;10531598;28;20066;-73
2024/02/10 19:05:51;;;;;;;12.20;11.15;;;;;;;8.04;100.00;150694.25;10550559;28;20040;-74
2024/02/10 19:10:55;;;;;;;12.43;11.32;;;;;;;8.21;100.00;150735.50;10532076;28;20052;-74
2024/02/10 19:15:56;;;;;;;12.25;11.18;;;;;;;8.12;100.00;150712.31;10533417;28;20431;-75
2024/02/10 19:21:00;;;;;;;13.02;11.80;;;;;;;8.35;100.00;150771.59;10550429;28;20040;-74
2024/02/10 19:26:03;;;;;;;11.95;10.88;;;;;;;8.43;100.00;150792.25;10531371;28;20044;-74
2024/02/10 19:31:11;;;;;;;12.63;10.23;;;;;;;8.18;100.00;150727.75;10550627;28;20054;-74
2024/02/10 19:36:16;;;;;;;11.35;10.27;;;;;;;8.09;100.00;150705.84;10589123;28;20483;-74
2024/02/10 19:41:18;;;;;;;11.00;10.10;;;;;;;8.06;100.00;150699.44;10589621;28;20040;-74
2024/02/10 19:46:20;;;;;;;11.20;10.18;;;;;;;8.05;100.00;150696.81;10572434;28;20082;-74
2024/02/10 19:51:24;;;;;;;10.40;9.48;;;;;;;8.13;100.00;150714.88;10589996;28;20096;-75
2024/02/10 19:56:26;;;;;;;10.75;9.68;;;;;;;8.08;100.00;150704.56;10579960;28;20050;-76
2024/02/10 20:01:28;;;;;;;11.23;10.32;;;;;;;8.24;100.00;150743.25;10559826;28;20047;-75
2024/02/10 20:06:32;;;;;;;10.13;9.15;;;;;;;8.22;100.00;150738.06;10574133;28;20039;-75
2024/02/10 20:11:36;;;;;;;10.95;10.05;;;;;;;8.23;100.00;150740.63;10591547;28;20042;-75
2024/02/10 20:16:38;;;;;;;10.20;9.40;;;;;;;7.95;100.00;150671.06;10592574;28;20035;-75
2024/02/10 20:21:42;;;;;;;10.82;9.85;;;;;;;8.08;100.00;150704.56;10575303;28;20051;-74
2024/02/10 20:26:44;;;;;;;11.75;9.98;;;;;;;8.11;100.00;150711.03;10592234;28;20407;-74
2024/02/10 20:31:50;;;;;;;10.23;9.30;;;;;;;8.16;100.00;150722.63;10573725;28;20051;-76
2024/02/10 20:36:56;;;;;;;9.73;8.82;;;;;;;8.13;100.00;150714.88;10573640;28;20384;-76
2024/02/10 20:41:58;;;;;;;8.95;8.25;;;;;;;8.11;100.00;150709.75;10591882;28;20054;-75
2024/02/10 20:47:01;;;;;;;10.68;8.35;;;;;;;8.05;100.00;150696.81;10572951;28;20039;-76
2024/02/10 20:52:04;;;;;;;9.75;8.85;;;;;;;7.94;100.00;150667.22;10573253;28;20089;-75
2024/02/10 20:57:07;;;;;;;9.13;8.27;;;;;;;7.81;100.00;150635.00;10574754;28;20051;-75
2024/02/10 21:02:10;;;;;;;8.45;7.57;;;;;;;8.00;100.00;150683.94;10572393;28;20039;-77
2024/02/10 21:07:13;;;;;;;8.90;8.00;;;;;;;8.11;100.00;150709.75;10571028;28;20047;-75
2024/02/10 21:12:16;;;;;;;9.57;8.73;;;;;;;8.10;100.00;150708.41;10568469;28;20039;-74
2024/02/10 21:17:18;;;;;;;8.75;8.02;;;;;;;7.79;100.00;150629.81;10567962;28;20047;-74
2024/02/10 21:22:20;;;;;;;9.05;8.25;;;;;;;7.89;100.00;150655.59;10569412;28;20061;-74
2024/02/10 21:27:23;;;;;;;8.60;7.78;;;;;;;7.54;100.00;150566.72;10587109;28;20058;-74
2024/02/10 21:32:28;;;;;;;9.32;8.30;;;;;;;7.41;100.00;150533.22;10586430;28;20039;-74
2024/02/10 21:37:31;;;;;;;9.15;8.23;;;;;;;7.39;100.00;150529.34;10587074;28;20039;-73
2024/02/10 21:42:36;;;;;;;8.65;7.85;;;;;;;7.65;100.00;150595.03;10552411;28;20040;-75
2024/02/10 21:47:39;;;;;;;9.13;7.85;;;;;;;7.27;100.00;150498.47;10570803;28;20044;-74
2024/02/10 21:52:43;;;;;;;9.60;7.35;;;;;;;6.93;100.00;150412.16;10587183;28;20058;-74
2024/02/10 21:57:45;;;;;;;8.95;8.05;;;;;;;6.98;100.00;150426.31;10587540;28;20046;-73
2024/02/10 22:02:50;;;;;;;8.68;7.05;;;;;;;7.13;100.00;150462.34;10588989;28;20040;-73
2024/02/10 22:07:52;;;;;;;8.60;7.90;;;;;;;6.86;100.00;150394.13;10575532;28;20040;-74
2024/02/10 22:12:54;;;;;;;8.75;7.90;;;;;;;6.91;100.00;150407.03;10593033;28;20043;-73
2024/02/10 22:17:57;;;;;;;8.00;7.35;;;;;;;6.66;100.00;150343.94;10595023;28;20046;-74
2024/02/10 22:23:00;;;;;;;9.30;8.43;;;;;;;6.52;100.00;150309.19;10576293;28;20066;-74
2024/02/10 22:28:03;;;;;;;8.18;7.47;;;;;;;6.28;100.00;150249.97;10576969;28;20102;-73
2024/02/10 22:33:09;;;;;;;9.23;8.43;;;;;;;6.28;100.00;150249.97;10576346;28;20093;-74
2024/02/10 22:38:16;;;;;;;8.10;7.30;;;;;;;6.25;100.00;150241.00;10593981;28;20055;-74
2024/02/10 22:43:19;;;;;;;10.10;7.40;;;;;;;6.21;100.00;150231.97;10590770;28;20097;-74
2024/02/10 22:48:22;;;;;;;8.15;7.35;;;;;;;6.28;100.00;150249.97;10591853;28;20510;-73
2024/02/10 22:53:24;;;;;;;8.10;7.40;;;;;;;6.04;100.00;150188.22;10571487;28;20043;-73
2024/02/10 22:58:26;;;;;;;8.40;7.60;;;;;;;6.26;100.00;150243.56;10589352;28;20050;-73
2024/02/10 23:03:29;;;;;;;8.93;8.13;;;;;;;6.04;100.00;150188.22;10591477;28;20039;-73
2024/02/10 23:08:32;;;;;;;8.85;7.60;;;;;;;6.17;100.00;150221.69;10571844;28;20047;-73
2024/02/10 23:13:34;;;;;;;8.27;7.57;;;;;;;6.13;100.00;150210.09;10589099;28;20082;-72
2024/02/10 23:18:36;;;;;;;7.75;6.95;;;;;;;5.89;100.00;150150.88;10588387;28;20411;-73
2024/02/10 23:23:38;;;;;;;7.72;7.03;;;;;;;5.90;100.00;150152.16;10588587;28;20546;-73
2024/02/10 23:28:43;;;;;;;7.47;6.80;;;;;;;6.06;100.00;150193.34;10588368;28;20055;-73